Time;durP1;ratioP1;P1;durP2;ratioP2;P2;SDS_P1;SDS_P2;PMS_P1;PMS_P2;Temp;Humidity;BMP_temperature;BMP_pressure;BME280_temperature;BME280_humidity;BME280_pressure;Samples;Min_cycle;Max_cycle;Signal;HPM_P1;HPM_P2
2021/07/21 00:02:11;;;;;;;22.55;13.13;;;;;;;;;;5096941;28;20059;-82
2021/07/21 00:04:37;;;;;;;16.65;12.98;;;;;;;;;;5097164;28;20040;-81
2021/07/21 00:07:05;;;;;;;20.88;13.10;;;;;;;;;;5097150;28;20043;-82
2021/07/21 00:09:31;;;;;;;18.38;12.60;;;;;;;;;;5096939;28;20466;-82
2021/07/21 00:14:42;;;;;;;22.60;13.25;;;;;;;;;;5097221;28;20039;-83
2021/07/21 00:17:24;;;;;;;20.60;13.77;;;;;;;;;;5097105;28;20406;-82
2021/07/21 00:22:33;;;;;;;22.02;13.93;;;;;;;;;;5097057;28;20024;-83
2021/07/21 00:25:00;;;;;;;18.90;13.15;;;;;;;;;;5099003;28;20311;-82
2021/07/21 00:27:26;;;;;;;17.88;13.18;;;;;;;;;;5101116;28;20059;-82
2021/07/21 00:29:52;;;;;;;20.48;13.65;;;;;;;;;;5100854;28;20020;-82
2021/07/21 00:32:18;;;;;;;17.58;12.63;;;;;;;;;;5100888;28;20028;-82
2021/07/21 00:34:45;;;;;;;20.90;13.63;;;;;;;;;;5101241;28;20024;-83
2021/07/21 00:37:11;;;;;;;16.63;13.48;;;;;;;;;;5101084;28;20020;-83
2021/07/21 00:39:37;;;;;;;19.65;13.40;;;;;;;;;;5101271;28;20022;-83
2021/07/21 00:42:03;;;;;;;20.88;14.10;;;;;;;;;;5082177;28;20032;-83
2021/07/21 00:44:29;;;;;;;20.48;13.85;;;;;;;;;;5100732;28;20031;-82
2021/07/21 00:46:55;;;;;;;21.23;13.93;;;;;;;;;;5100658;28;20026;-82
2021/07/21 00:49:25;;;;;;;21.38;14.23;;;;;;;;;;5100920;28;20590;-81
2021/07/21 00:51:51;;;;;;;21.45;13.10;;;;;;;;;;5100814;28;20089;-82
2021/07/21 00:54:17;;;;;;;18.10;13.27;;;;;;;;;;5100553;28;20027;-81
2021/07/21 00:56:43;;;;;;;23.45;13.65;;;;;;;;;;5100485;28;20111;-81
2021/07/21 00:59:10;;;;;;;18.77;12.98;;;;;;;;;;5100463;28;20028;-81
2021/07/21 01:01:36;;;;;;;20.30;13.25;;;;;;;;;;5100483;28;20047;-81
2021/07/21 01:04:05;;;;;;;21.65;14.27;;;;;;;;;;5082491;28;20299;-82
2021/07/21 01:06:32;;;;;;;18.50;13.77;;;;;;;;;;5100371;28;20314;-81
2021/07/21 01:08:58;;;;;;;20.13;13.93;;;;;;;;;;5081653;28;20159;-81
2021/07/21 01:11:43;;;;;;;17.13;13.07;;;;;;;;;;5100171;28;20027;-82
2021/07/21 01:14:09;;;;;;;21.83;13.38;;;;;;;;;;5100282;28;20135;-81
2021/07/21 01:16:37;;;;;;;20.10;13.85;;;;;;;;;;5100287;28;20106;-82
2021/07/21 01:19:13;;;;;;;20.83;13.60;;;;;;;;;;5082269;28;20295;-83
2021/07/21 01:21:45;;;;;;;18.00;13.32;;;;;;;;;;5100139;28;20035;-82
2021/07/21 01:24:36;;;;;;;18.95;13.25;;;;;;;;;;5081943;28;20153;-83
2021/07/21 01:27:21;;;;;;;19.92;13.43;;;;;;;;;;5099691;28;20213;-82
2021/07/21 01:29:49;;;;;;;20.30;14.07;;;;;;;;;;5100089;28;20024;-83
2021/07/21 01:32:17;;;;;;;18.70;13.38;;;;;;;;;;5099907;28;20119;-82
2021/07/21 01:34:44;;;;;;;19.13;12.57;;;;;;;;;;5099936;28;20110;-82
2021/07/21 01:37:10;;;;;;;15.90;12.73;;;;;;;;;;5098792;28;20463;-82
2021/07/21 01:39:38;;;;;;;19.38;13.20;;;;;;;;;;5099973;28;20028;-82
2021/07/21 01:42:07;;;;;;;20.08;13.68;;;;;;;;;;5099812;28;20035;-82
2021/07/21 01:44:37;;;;;;;22.45;13.55;;;;;;;;;;5099721;28;20028;-82
2021/07/21 01:47:03;;;;;;;18.85;13.38;;;;;;;;;;5099604;28;20023;-83
2021/07/21 01:49:35;;;;;;;20.27;13.57;;;;;;;;;;5099579;28;20028;-82
2021/07/21 01:52:06;;;;;;;20.20;13.68;;;;;;;;;;5099626;28;20024;-82
2021/07/21 01:54:33;;;;;;;22.02;13.50;;;;;;;;;;5099282;28;20421;-82
2021/07/21 01:57:01;;;;;;;22.45;13.07;;;;;;;;;;5099412;28;20028;-82
2021/07/21 01:59:30;;;;;;;19.65;13.25;;;;;;;;;;5099502;28;20606;-82
2021/07/21 02:01:56;;;;;;;21.48;12.90;;;;;;;;;;5081095;28;20422;-82
2021/07/21 02:04:23;;;;;;;20.98;13.77;;;;;;;;;;5099129;28;20111;-81
2021/07/21 02:06:49;;;;;;;19.55;13.40;;;;;;;;;;5099420;28;20111;-81
2021/07/21 02:09:15;;;;;;;18.55;13.25;;;;;;;;;;5099213;28;20024;-81
2021/07/21 02:11:42;;;;;;;20.17;13.25;;;;;;;;;;5099009;28;20038;-81
2021/07/21 02:14:08;;;;;;;20.92;14.52;;;;;;;;;;5099042;28;20016;-82
2021/07/21 02:16:36;;;;;;;21.35;13.68;;;;;;;;;;5099148;28;20351;-83
2021/07/21 02:19:04;;;;;;;22.63;14.40;;;;;;;;;;5098900;28;20025;-82
2021/07/21 02:21:31;;;;;;;19.85;13.18;;;;;;;;;;5099075;28;20016;-83
2021/07/21 02:23:58;;;;;;;22.15;14.48;;;;;;;;;;5099063;28;20024;-82
2021/07/21 02:26:25;;;;;;;19.25;14.00;;;;;;;;;;5099053;28;20050;-82
2021/07/21 02:28:51;;;;;;;19.95;13.85;;;;;;;;;;5098833;28;20016;-81
2021/07/21 02:31:30;;;;;;;18.23;13.10;;;;;;;;;;5098955;28;20028;-82
2021/07/21 02:34:02;;;;;;;20.25;13.77;;;;;;;;;;5098624;28;20024;-82
2021/07/21 02:36:28;;;;;;;19.83;13.77;;;;;;;;;;5098642;28;20032;-82
2021/07/21 02:38:54;;;;;;;22.02;14.55;;;;;;;;;;5098563;28;20028;-81
2021/07/21 02:41:20;;;;;;;17.52;12.90;;;;;;;;;;5098691;28;20032;-82
2021/07/21 02:43:46;;;;;;;20.20;14.00;;;;;;;;;;5098525;28;20036;-82
2021/07/21 02:46:13;;;;;;;20.73;13.23;;;;;;;;;;5098687;28;20047;-83
2021/07/21 02:48:42;;;;;;;19.70;14.20;;;;;;;;;;5098643;28;20101;-83
2021/07/21 02:51:10;;;;;;;19.42;13.20;;;;;;;;;;5098406;28;20020;-83
2021/07/21 02:53:38;;;;;;;21.23;13.07;;;;;;;;;;5098257;28;20049;-83
2021/07/21 02:56:08;;;;;;;19.13;13.02;;;;;;;;;;5098327;28;20016;-83
2021/07/21 02:58:44;;;;;;;23.42;13.35;;;;;;;;;;5079742;28;20032;-83
2021/07/21 03:01:11;;;;;;;22.20;13.55;;;;;;;;;;5098164;28;20036;-83
2021/07/21 03:03:38;;;;;;;18.88;13.52;;;;;;;;;;5098401;28;20157;-83
2021/07/21 03:06:05;;;;;;;20.77;13.77;;;;;;;;;;5098183;28;20016;-82
2021/07/21 03:08:32;;;;;;;24.33;14.13;;;;;;;;;;5097973;28;20059;-81
2021/07/21 03:10:59;;;;;;;19.02;13.98;;;;;;;;;;5098052;28;20024;-82
2021/07/21 03:13:29;;;;;;;27.98;14.80;;;;;;;;;;5097854;28;20027;-82
2021/07/21 03:15:56;;;;;;;19.92;13.30;;;;;;;;;;5097929;28;20020;-82
2021/07/21 03:18:25;;;;;;;20.65;14.10;;;;;;;;;;5097826;28;20024;-82
2021/07/21 03:20:54;;;;;;;19.70;13.40;;;;;;;;;;5079884;28;20058;-83
2021/07/21 03:23:21;;;;;;;19.23;12.52;;;;;;;;;;5097805;28;20062;-83
2021/07/21 03:25:49;;;;;;;21.70;13.48;;;;;;;;;;5097705;28;20031;-82
2021/07/21 03:28:15;;;;;;;19.05;12.45;;;;;;;;;;5097698;28;20028;-83
2021/07/21 03:30:41;;;;;;;18.55;13.40;;;;;;;;;;5097706;28;20031;-82
2021/07/21 03:33:09;;;;;;;18.08;12.70;;;;;;;;;;5097600;28;20024;-82
2021/07/21 03:35:35;;;;;;;19.13;13.23;;;;;;;;;;5097637;28;20020;-82
2021/07/21 03:38:02;;;;;;;19.75;13.32;;;;;;;;;;5097437;28;20420;-82
2021/07/21 03:40:29;;;;;;;21.95;14.07;;;;;;;;;;5097622;28;20321;-82
2021/07/21 03:42:55;;;;;;;20.95;13.40;;;;;;;;;;5097355;28;20032;-81
2021/07/21 03:45:23;;;;;;;19.98;13.48;;;;;;;;;;5097323;28;20081;-81
2021/07/21 03:47:49;;;;;;;22.00;14.13;;;;;;;;;;5097304;28;20063;-81
2021/07/21 03:50:18;;;;;;;18.50;12.52;;;;;;;;;;5097419;28;20024;-81
2021/07/21 03:52:45;;;;;;;20.98;12.38;;;;;;;;;;5097196;28;20070;-82
2021/07/21 03:55:14;;;;;;;18.10;12.73;;;;;;;;;;5097245;28;20046;-82
2021/07/21 03:57:40;;;;;;;26.85;13.25;;;;;;;;;;5097234;28;20027;-82
2021/07/21 04:00:09;;;;;;;23.00;13.25;;;;;;;;;;5078794;28;20024;-82
2021/07/21 04:02:35;;;;;;;20.30;13.35;;;;;;;;;;5096851;28;20047;-82
2021/07/21 04:05:02;;;;;;;21.60;12.68;;;;;;;;;;5097075;28;20114;-81
2021/07/21 04:07:28;;;;;;;21.95;12.98;;;;;;;;;;5097083;28;20024;-81
2021/07/21 04:09:54;;;;;;;19.95;13.40;;;;;;;;;;5097180;28;20025;-81
2021/07/21 04:12:22;;;;;;;18.48;13.15;;;;;;;;;;5079040;28;20073;-81
2021/07/21 04:14:48;;;;;;;19.05;13.45;;;;;;;;;;5097240;28;20149;-81
2021/07/21 04:17:15;;;;;;;19.52;13.45;;;;;;;;;;5096959;28;20016;-80
2021/07/21 04:19:42;;;;;;;18.40;13.20;;;;;;;;;;5097073;28;20016;-80
2021/07/21 04:22:08;;;;;;;19.65;12.52;;;;;;;;;;5079105;28;20493;-81
2021/07/21 04:24:35;;;;;;;22.90;13.52;;;;;;;;;;5096928;28;20024;-81
2021/07/21 04:27:05;;;;;;;19.33;13.05;;;;;;;;;;5096640;28;20034;-81
2021/07/21 04:29:32;;;;;;;19.08;12.60;;;;;;;;;;5096870;28;20030;-82
2021/07/21 04:31:59;;;;;;;19.65;12.55;;;;;;;;;;5097051;28;20036;-80
2021/07/21 04:34:25;;;;;;;21.15;13.40;;;;;;;;;;5096403;28;20016;-82
2021/07/21 04:36:51;;;;;;;20.27;13.35;;;;;;;;;;5087229;28;20023;-82
2021/07/21 04:39:19;;;;;;;19.55;13.20;;;;;;;;;;5096831;28;20047;-83
2021/07/21 04:41:47;;;;;;;20.52;13.82;;;;;;;;;;5096708;28;20043;-81
2021/07/21 04:44:13;;;;;;;19.73;12.63;;;;;;;;;;5097025;28;20048;-82
2021/07/21 04:46:39;;;;;;;20.08;12.85;;;;;;;;;;5078840;28;20035;-82
2021/07/21 04:49:06;;;;;;;18.15;12.15;;;;;;;;;;5096932;28;20024;-81
2021/07/21 04:51:33;;;;;;;19.42;12.63;;;;;;;;;;5096697;28;20017;-82
2021/07/21 04:54:03;;;;;;;20.15;12.45;;;;;;;;;;5096629;28;20035;-82
2021/07/21 04:56:30;;;;;;;19.63;13.00;;;;;;;;;;5096648;28;20020;-82
2021/07/21 04:58:56;;;;;;;21.42;13.80;;;;;;;;;;5096335;28;20020;-83
2021/07/21 05:01:22;;;;;;;20.08;12.95;;;;;;;;;;5096690;28;20020;-82
2021/07/21 05:03:48;;;;;;;23.10;13.43;;;;;;;;;;5096550;28;20036;-82
2021/07/21 05:06:14;;;;;;;19.08;12.85;;;;;;;;;;5096642;28;20024;-82
2021/07/21 05:08:40;;;;;;;22.70;12.95;;;;;;;;;;5096638;28;20460;-81
2021/07/21 05:11:06;;;;;;;21.45;11.73;;;;;;;;;;5097020;28;20337;-83
2021/07/21 05:13:37;;;;;;;22.38;12.43;;;;;;;;;;5100442;28;20031;-83
2021/07/21 05:16:03;;;;;;;26.00;13.13;;;;;;;;;;5100183;28;20107;-82
2021/07/21 05:18:29;;;;;;;18.65;12.27;;;;;;;;;;5100065;28;20506;-82
2021/07/21 05:20:55;;;;;;;18.15;11.57;;;;;;;;;;5082118;28;20424;-82
2021/07/21 05:23:22;;;;;;;20.45;12.15;;;;;;;;;;5081435;28;20445;-81
2021/07/21 05:25:48;;;;;;;15.30;11.85;;;;;;;;;;5099960;28;20360;-80
2021/07/21 05:28:14;;;;;;;20.73;11.85;;;;;;;;;;5099839;28;20360;-81
2021/07/21 05:30:40;;;;;;;18.00;12.02;;;;;;;;;;5100101;28;20028;-82
2021/07/21 05:33:06;;;;;;;21.27;12.77;;;;;;;;;;5100011;28;20032;-80
2021/07/21 05:35:32;;;;;;;21.42;12.45;;;;;;;;;;5099905;28;20016;-81
2021/07/21 05:37:58;;;;;;;16.90;12.57;;;;;;;;;;5081183;28;20040;-81
2021/07/21 05:40:24;;;;;;;17.90;13.15;;;;;;;;;;5081992;28;20416;-81
2021/07/21 05:42:50;;;;;;;16.63;12.38;;;;;;;;;;5081721;28;20028;-82
2021/07/21 05:45:16;;;;;;;21.10;13.05;;;;;;;;;;5099634;28;20024;-81
2021/07/21 05:47:42;;;;;;;24.13;13.77;;;;;;;;;;5081739;28;20302;-82
2021/07/21 05:50:10;;;;;;;17.33;12.35;;;;;;;;;;5099701;28;20020;-82
2021/07/21 05:52:36;;;;;;;17.77;12.77;;;;;;;;;;5081594;28;20024;-83
2021/07/21 05:55:03;;;;;;;18.38;11.90;;;;;;;;;;5099418;28;20050;-82
2021/07/21 05:57:29;;;;;;;18.45;12.57;;;;;;;;;;5099161;28;20317;-82
2021/07/21 05:59:55;;;;;;;19.33;12.70;;;;;;;;;;5080927;28;20406;-82
2021/07/21 06:02:22;;;;;;;19.52;13.15;;;;;;;;;;5081459;28;20092;-82
2021/07/21 06:04:48;;;;;;;19.33;12.48;;;;;;;;;;5081003;28;20036;-82
2021/07/21 06:07:14;;;;;;;21.30;13.02;;;;;;;;;;5099162;28;20078;-80
2021/07/21 06:09:40;;;;;;;19.15;11.88;;;;;;;;;;5099173;28;20024;-83
2021/07/21 06:12:07;;;;;;;20.73;12.32;;;;;;;;;;5098960;28;20024;-83
2021/07/21 06:14:33;;;;;;;19.60;12.75;;;;;;;;;;5099173;28;20074;-83
2021/07/21 06:17:00;;;;;;;23.52;13.07;;;;;;;;;;5099241;28;20046;-82
2021/07/21 06:19:26;;;;;;;21.38;12.07;;;;;;;;;;5099124;28;20318;-83
2021/07/21 06:21:52;;;;;;;15.82;11.88;;;;;;;;;;5098710;28;20107;-82
2021/07/21 06:24:19;;;;;;;15.93;12.02;;;;;;;;;;5098820;28;20024;-82
2021/07/21 06:26:45;;;;;;;17.65;11.98;;;;;;;;;;5080808;28;20042;-82
2021/07/21 06:29:11;;;;;;;17.08;12.20;;;;;;;;;;5080828;28;20356;-82
2021/07/21 06:31:37;;;;;;;16.23;11.65;;;;;;;;;;5098753;28;20048;-82
2021/07/21 06:34:03;;;;;;;15.60;11.73;;;;;;;;;;5098535;28;20069;-82
2021/07/21 06:36:29;;;;;;;18.38;12.48;;;;;;;;;;5098651;28;20022;-81
2021/07/21 06:38:55;;;;;;;19.50;12.57;;;;;;;;;;5098270;28;20410;-82
2021/07/21 06:41:22;;;;;;;21.77;12.50;;;;;;;;;;5098518;28;20420;-81
2021/07/21 06:43:50;;;;;;;19.67;12.13;;;;;;;;;;5098513;28;20039;-81
2021/07/21 06:46:16;;;;;;;18.35;12.07;;;;;;;;;;5098761;28;20024;-84
2021/07/21 06:48:42;;;;;;;16.48;12.02;;;;;;;;;;5098564;28;20024;-84
2021/07/21 06:51:08;;;;;;;19.58;11.40;;;;;;;;;;5098811;28;20337;-82
2021/07/21 06:53:34;;;;;;;18.98;12.25;;;;;;;;;;5098114;28;20093;-82
2021/07/21 06:56:00;;;;;;;17.80;12.05;;;;;;;;;;5098300;28;20031;-83
2021/07/21 06:58:26;;;;;;;16.60;12.38;;;;;;;;;;5079520;28;20051;-83
2021/07/21 07:00:53;;;;;;;20.45;12.38;;;;;;;;;;5098362;28;20044;-81
2021/07/21 07:03:19;;;;;;;18.95;12.20;;;;;;;;;;5098005;28;20520;-82
2021/07/21 07:05:45;;;;;;;20.27;12.70;;;;;;;;;;5079240;28;20089;-82
2021/07/21 07:08:11;;;;;;;21.15;12.60;;;;;;;;;;5098199;28;20107;-82
2021/07/21 07:10:37;;;;;;;20.20;12.93;;;;;;;;;;5097684;28;20344;-81
2021/07/21 07:13:05;;;;;;;20.58;13.13;;;;;;;;;;5098085;28;20024;-82
2021/07/21 07:15:31;;;;;;;19.05;12.70;;;;;;;;;;5098002;28;20105;-82
2021/07/21 07:17:58;;;;;;;26.40;13.43;;;;;;;;;;5098171;28;20024;-82
2021/07/21 07:20:24;;;;;;;19.58;11.05;;;;;;;;;;5079310;28;20123;-81
2021/07/21 07:22:50;;;;;;;18.35;11.60;;;;;;;;;;5097761;28;20486;-81
2021/07/21 07:25:16;;;;;;;20.95;12.25;;;;;;;;;;5097935;28;20051;-84
2021/07/21 07:27:42;;;;;;;31.13;21.75;;;;;;;;;;5097832;28;20052;-84
2021/07/21 07:30:10;;;;;;;21.30;14.82;;;;;;;;;;5097656;28;20020;-84
2021/07/21 07:32:36;;;;;;;21.98;15.18;;;;;;;;;;5079191;28;20113;-83
2021/07/21 07:35:03;;;;;;;19.50;13.13;;;;;;;;;;5097148;28;20046;-82
2021/07/21 07:37:29;;;;;;;19.48;12.52;;;;;;;;;;5097439;28;20020;-81
2021/07/21 07:39:55;;;;;;;16.98;12.27;;;;;;;;;;5097563;28;20052;-81
2021/07/21 07:42:21;;;;;;;17.67;12.75;;;;;;;;;;5097372;28;20024;-82
2021/07/21 07:44:47;;;;;;;17.92;12.50;;;;;;;;;;5079095;28;20039;-81
2021/07/21 07:47:13;;;;;;;43.45;30.65;;;;;;;;;;5097021;28;20031;-82
2021/07/21 07:49:39;;;;;;;31.13;23.75;;;;;;;;;;5097394;28;20031;-83
2021/07/21 07:52:06;;;;;;;20.83;14.82;;;;;;;;;;5097310;28;20077;-82
2021/07/21 07:54:50;;;;;;;20.17;13.13;;;;;;;;;;5095924;28;20055;-81
2021/07/21 07:57:16;;;;;;;22.15;13.20;;;;;;;;;;5079011;28;20052;-81
2021/07/21 07:59:42;;;;;;;14.77;11.65;;;;;;;;;;5097275;28;20024;-82
2021/07/21 08:02:09;;;;;;;20.00;11.82;;;;;;;;;;5097138;28;20048;-81
2021/07/21 08:04:36;;;;;;;22.77;12.05;;;;;;;;;;5079597;28;20160;-81
2021/07/21 08:07:02;;;;;;;16.17;10.93;;;;;;;;;;5097517;28;20032;-82
2021/07/21 08:09:29;;;;;;;19.83;15.15;;;;;;;;;;5096990;28;20020;-82
2021/07/21 08:11:58;;;;;;;17.25;11.65;;;;;;;;;;5097028;28;20032;-82
2021/07/21 08:14:24;;;;;;;17.50;12.35;;;;;;;;;;5096744;28;20020;-83
2021/07/21 08:16:51;;;;;;;23.23;11.90;;;;;;;;;;5097053;28;20036;-83
2021/07/21 08:19:17;;;;;;;23.95;11.52;;;;;;;;;;5112159;28;20031;-82
2021/07/21 08:21:44;;;;;;;20.92;11.85;;;;;;;;;;5096381;28;20027;-82
2021/07/21 08:24:10;;;;;;;17.88;12.90;;;;;;;;;;5096978;28;20065;-82
2021/07/21 08:26:36;;;;;;;17.85;12.68;;;;;;;;;;5097039;28;20023;-82
2021/07/21 08:29:03;;;;;;;17.90;12.15;;;;;;;;;;5096939;28;20402;-82
2021/07/21 08:31:29;;;;;;;18.00;12.18;;;;;;;;;;5097046;28;20122;-81
2021/07/21 08:34:00;;;;;;;19.05;12.82;;;;;;;;;;5096923;28;20050;-82
2021/07/21 08:36:27;;;;;;;16.20;12.50;;;;;;;;;;5097059;28;20036;-81
2021/07/21 08:38:53;;;;;;;19.15;12.30;;;;;;;;;;5112341;28;20028;-81
2021/07/21 08:41:20;;;;;;;16.85;11.68;;;;;;;;;;5096943;28;20023;-81
2021/07/21 08:43:46;;;;;;;21.63;12.10;;;;;;;;;;5097019;28;20028;-81
2021/07/21 08:46:13;;;;;;;19.80;12.13;;;;;;;;;;5114961;28;20114;-81
2021/07/21 08:48:39;;;;;;;21.30;12.27;;;;;;;;;;5116510;28;20039;-81
2021/07/21 08:51:05;;;;;;;21.67;11.63;;;;;;;;;;5100837;28;20089;-82
2021/07/21 08:53:32;;;;;;;15.38;11.98;;;;;;;;;;5100436;28;20064;-82
2021/07/21 08:55:58;;;;;;;16.30;11.25;;;;;;;;;;5100459;28;20035;-82
2021/07/21 08:58:25;;;;;;;17.88;11.50;;;;;;;;;;5116080;28;20073;-81
2021/07/21 09:00:52;;;;;;;30.38;11.90;;;;;;;;;;5116356;28;20107;-81
2021/07/21 09:03:19;;;;;;;18.10;11.30;;;;;;;;;;5100325;28;20052;-81
2021/07/21 09:05:47;;;;;;;22.30;11.70;;;;;;;;;;5100343;28;20341;-81
2021/07/21 09:08:14;;;;;;;15.57;11.32;;;;;;;;;;5116375;28;20032;-80
2021/07/21 09:10:42;;;;;;;14.70;10.77;;;;;;;;;;5100399;28;20028;-80
2021/07/21 09:13:08;;;;;;;19.98;11.32;;;;;;;;;;5115927;28;20036;-81
2021/07/21 09:15:34;;;;;;;19.90;13.65;;;;;;;;;;5100599;28;20137;-82
2021/07/21 09:18:07;;;;;;;34.15;23.38;;;;;;;;;;5100284;28;20024;-82
2021/07/21 09:20:34;;;;;;;18.92;13.40;;;;;;;;;;5100214;28;20317;-82
2021/07/21 09:23:00;;;;;;;22.20;15.93;;;;;;;;;;5116153;28;20028;-83
2021/07/21 09:25:28;;;;;;;16.75;11.20;;;;;;;;;;5115606;28;20032;-82
2021/07/21 09:27:55;;;;;;;32.05;24.48;;;;;;;;;;5116064;28;20032;-83
2021/07/21 09:30:23;;;;;;;16.38;12.68;;;;;;;;;;5100047;28;20028;-83
2021/07/21 09:32:51;;;;;;;24.70;14.68;;;;;;;;;;5099892;28;20040;-82
2021/07/21 09:35:17;;;;;;;23.23;17.27;;;;;;;;;;5099934;28;20296;-82
2021/07/21 09:37:43;;;;;;;19.00;10.52;;;;;;;;;;5099815;28;20318;-82
2021/07/21 09:40:09;;;;;;;18.85;12.50;;;;;;;;;;5099716;28;20392;-81
2021/07/21 09:42:37;;;;;;;20.55;14.23;;;;;;;;;;5099815;28;20066;-81
2021/07/21 09:45:10;;;;;;;31.02;21.92;;;;;;;;;;5099934;28;20048;-82
2021/07/21 09:47:41;;;;;;;30.65;23.55;;;;;;;;;;5099658;28;20403;-81
2021/07/21 09:50:15;;;;;;;23.47;15.87;;;;;;;;;;5115152;28;20032;-84
2021/07/21 09:52:48;;;;;;;15.45;11.02;;;;;;;;;;5099732;28;20268;-85
2021/07/21 09:55:15;;;;;;;14.60;10.30;;;;;;;;;;5100060;28;20050;-85
2021/07/21 09:57:42;;;;;;;13.88;10.50;;;;;;;;;;5114656;28;20077;-85
2021/07/21 10:00:25;;;;;;;13.80;9.43;;;;;;;;;;5100065;28;20012;-85
2021/07/21 10:02:51;;;;;;;15.98;11.13;;;;;;;;;;5099196;28;20052;-85
2021/07/21 10:05:18;;;;;;;18.85;10.68;;;;;;;;;;5099610;28;20024;-85
2021/07/21 10:07:49;;;;;;;18.52;10.95;;;;;;;;;;5099482;28;20024;-86
2021/07/21 10:10:22;;;;;;;17.88;11.00;;;;;;;;;;5115192;28;20063;-85
2021/07/21 10:13:02;;;;;;;18.90;11.35;;;;;;;;;;5115171;28;20028;-86
2021/07/21 10:15:28;;;;;;;25.65;12.82;;;;;;;;;;5099544;28;20318;-85
2021/07/21 10:18:23;;;;;;;17.17;10.15;;;;;;;;;;5099300;28;20024;-85
2021/07/21 10:20:50;;;;;;;17.52;11.02;;;;;;;;;;5057447;28;20033;-85
2021/07/21 10:23:17;;;;;;;26.40;12.20;;;;;;;;;;5040756;28;20025;-85
2021/07/21 10:25:43;;;;;;;18.23;11.48;;;;;;;;;;5057152;28;20037;-85
2021/07/21 10:28:10;;;;;;;16.27;10.55;;;;;;;;;;5039888;28;20342;-85
2021/07/21 10:30:37;;;;;;;19.63;10.00;;;;;;;;;;5056690;28;20036;-86
2021/07/21 10:33:04;;;;;;;16.48;11.05;;;;;;;;;;5057086;28;20044;-83
2021/07/21 10:35:30;;;;;;;15.45;10.25;;;;;;;;;;5056752;28;20021;-84
2021/07/21 10:37:57;;;;;;;14.38;10.35;;;;;;;;;;5056806;28;20033;-89
2021/07/21 10:40:24;;;;;;;16.92;10.90;;;;;;;;;;5057837;28;20021;-88
2021/07/21 10:42:52;;;;;;;14.98;10.23;;;;;;;;;;5057162;28;20092;-85
2021/07/21 10:45:21;;;;;;;14.40;10.45;;;;;;;;;;5040832;28;20033;-83
2021/07/21 10:47:49;;;;;;;14.52;10.65;;;;;;;;;;5056780;28;20029;-84
2021/07/21 10:50:30;;;;;;;16.80;10.70;;;;;;;;;;5039525;28;20032;-84
2021/07/21 10:53:14;;;;;;;39.53;15.70;;;;;;;;;;5056342;28;20033;-84
2021/07/21 10:55:46;;;;;;;22.17;11.73;;;;;;;;;;5056557;28;20354;-84
2021/07/21 11:00:57;;;;;;;17.58;10.55;;;;;;;;;;5098802;28;20046;-85
2021/07/21 11:03:23;;;;;;;16.65;10.40;;;;;;;;;;5098084;28;20056;-83
2021/07/21 11:05:58;;;;;;;19.58;11.23;;;;;;;;;;5098141;28;20108;-83
2021/07/21 11:08:25;;;;;;;18.45;12.25;;;;;;;;;;5097459;28;20020;-83
2021/07/21 11:10:51;;;;;;;15.80;10.55;;;;;;;;;;5097838;28;20047;-84
2021/07/21 11:13:33;;;;;;;20.55;11.13;;;;;;;;;;5113657;28;20079;-84
2021/07/21 11:16:04;;;;;;;14.82;10.18;;;;;;;;;;5098144;28;20012;-84
2021/07/21 11:18:44;;;;;;;20.45;11.65;;;;;;;;;;5113349;28;20032;-84
2021/07/21 11:21:17;;;;;;;15.18;10.23;;;;;;;;;;5098255;28;20028;-84
2021/07/21 11:23:52;;;;;;;12.20;9.75;;;;;;;;;;5097676;28;20032;-84
2021/07/21 11:26:38;;;;;;;13.00;10.18;;;;;;;;;;5097958;28;20020;-84
2021/07/21 11:29:29;;;;;;;12.93;10.20;;;;;;;;;;5097820;28;20081;-84
2021/07/21 11:31:55;;;;;;;15.75;10.48;;;;;;;;;;5098126;28;20028;-84
2021/07/21 11:34:28;;;;;;;19.38;9.13;;;;;;;;;;5113238;28;20426;-84
2021/07/21 11:36:56;;;;;;;16.00;9.70;;;;;;;;;;5097708;28;20031;-84
2021/07/21 11:39:36;;;;;;;19.42;10.32;;;;;;;;;;5112882;28;20032;-84
2021/07/21 11:42:08;;;;;;;17.10;9.90;;;;;;;;;;5097666;28;20016;-84
2021/07/21 11:44:38;;;;;;;126.97;16.67;;;;;;;;;;5113284;28;20054;-84
2021/07/21 11:47:15;;;;;;;12.40;8.75;;;;;;;;;;5097766;28;20055;-84
2021/07/21 11:49:53;;;;;;;15.57;9.68;;;;;;;;;;5097559;28;20020;-84
2021/07/21 11:52:21;;;;;;;15.27;10.35;;;;;;;;;;5097258;28;20103;-84
2021/07/21 11:54:47;;;;;;;18.33;10.20;;;;;;;;;;5112920;28;20036;-84
2021/07/21 11:57:13;;;;;;;16.05;10.18;;;;;;;;;;5097453;28;20410;-84
2021/07/21 11:59:40;;;;;;;13.80;9.57;;;;;;;;;;5097370;28;20359;-84
2021/07/21 12:02:06;;;;;;;121.05;15.43;;;;;;;;;;5097330;28;20040;-84
2021/07/21 12:04:33;;;;;;;12.98;8.73;;;;;;;;;;5097523;28;20028;-84
2021/07/21 12:06:59;;;;;;;20.70;9.65;;;;;;;;;;5097291;28;20069;-84
2021/07/21 12:09:26;;;;;;;16.20;12.20;;;;;;;;;;5097229;28;20069;-84
2021/07/21 12:11:57;;;;;;;22.05;17.13;;;;;;;;;;5097571;28;20348;-84
2021/07/21 12:14:23;;;;;;;18.60;11.18;;;;;;;;;;5097622;28;20031;-84
2021/07/21 12:16:50;;;;;;;13.00;9.00;;;;;;;;;;5097190;28;20020;-84
2021/07/21 12:19:16;;;;;;;13.02;9.13;;;;;;;;;;5097142;28;20460;-84
2021/07/21 12:21:42;;;;;;;15.90;11.63;;;;;;;;;;5100303;28;20299;-85
2021/07/21 12:24:12;;;;;;;14.60;11.32;;;;;;;;;;5117187;28;20043;-85
2021/07/21 12:26:49;;;;;;;42.47;35.15;;;;;;;;;;5101568;28;20111;-85
2021/07/21 12:29:24;;;;;;;34.08;26.88;;;;;;;;;;5116828;28;20036;-84
2021/07/21 12:32:01;;;;;;;25.35;19.10;;;;;;;;;;5101024;28;20074;-83
2021/07/21 12:34:27;;;;;;;24.17;18.27;;;;;;;;;;5101063;28;20035;-83
2021/07/21 12:36:53;;;;;;;24.83;17.83;;;;;;;;;;5100794;28;20114;-84
2021/07/21 12:39:26;;;;;;;12.00;8.77;;;;;;;;;;5116732;28;20024;-85
2021/07/21 12:41:52;;;;;;;11.00;8.65;;;;;;;;;;5100901;28;20044;-84
2021/07/21 12:44:20;;;;;;;13.82;9.25;;;;;;;;;;5101030;28;20052;-84
2021/07/21 12:46:46;;;;;;;11.93;8.70;;;;;;;;;;5101139;28;20039;-85
2021/07/21 12:49:13;;;;;;;13.27;8.85;;;;;;;;;;5117043;28;20020;-84
2021/07/21 12:51:40;;;;;;;10.98;8.85;;;;;;;;;;5100917;28;20103;-80
2021/07/21 12:54:07;;;;;;;12.63;8.68;;;;;;;;;;5100742;28;20058;-82
2021/07/21 12:56:33;;;;;;;12.85;8.93;;;;;;;;;;5100512;28;20019;-82
2021/07/21 12:59:06;;;;;;;10.70;8.25;;;;;;;;;;5100457;28;20025;-81
2021/07/21 13:01:32;;;;;;;10.65;7.55;;;;;;;;;;5100636;28;20119;-82
2021/07/21 13:03:58;;;;;;;12.77;9.27;;;;;;;;;;5116135;28;20120;-82
2021/07/21 13:06:25;;;;;;;12.20;8.63;;;;;;;;;;5100683;28;20035;-82
2021/07/21 13:08:51;;;;;;;12.82;8.20;;;;;;;;;;5100309;28;20032;-82
2021/07/21 13:11:17;;;;;;;11.60;8.52;;;;;;;;;;5100300;28;20027;-82
2021/07/21 13:13:52;;;;;;;11.45;8.55;;;;;;;;;;5100376;28;20059;-82
2021/07/21 13:16:22;;;;;;;13.95;9.60;;;;;;;;;;5100292;28;20020;-81
2021/07/21 13:18:49;;;;;;;11.10;8.10;;;;;;;;;;5115826;28;20414;-81
2021/07/21 13:21:18;;;;;;;12.15;8.77;;;;;;;;;;5115405;28;20347;-82
2021/07/21 13:23:44;;;;;;;10.13;8.50;;;;;;;;;;5099975;28;20058;-81
2021/07/21 13:26:11;;;;;;;16.58;8.32;;;;;;;;;;5100068;28;20128;-81
2021/07/21 13:28:43;;;;;;;10.30;8.02;;;;;;;;;;5115964;28;20032;-81
2021/07/21 13:31:12;;;;;;;10.77;8.30;;;;;;;;;;5100023;28;20032;-81
2021/07/21 13:33:38;;;;;;;11.20;8.68;;;;;;;;;;5098856;28;20027;-81
2021/07/21 13:36:05;;;;;;;13.88;8.90;;;;;;;;;;5115533;28;20074;-82
2021/07/21 13:38:32;;;;;;;10.18;8.25;;;;;;;;;;5115321;28;20032;-82
2021/07/21 13:40:59;;;;;;;10.77;8.13;;;;;;;;;;5099459;28;20437;-81
2021/07/21 13:43:26;;;;;;;11.20;8.82;;;;;;;;;;5115316;28;20035;-82
2021/07/21 13:45:52;;;;;;;12.95;8.23;;;;;;;;;;5099526;28;20048;-81
2021/07/21 13:48:25;;;;;;;12.20;8.48;;;;;;;;;;5099600;28;20024;-81
2021/07/21 13:51:09;;;;;;;14.10;8.82;;;;;;;;;;5099592;28;20032;-81
2021/07/21 13:53:35;;;;;;;11.90;8.20;;;;;;;;;;5099209;28;20032;-81
2021/07/21 13:56:02;;;;;;;11.32;9.20;;;;;;;;;;5115022;28;20094;-81
2021/07/21 13:58:28;;;;;;;11.65;8.48;;;;;;;;;;5099375;28;20146;-82
2021/07/21 14:00:54;;;;;;;12.38;8.68;;;;;;;;;;5099650;28;20034;-82
2021/07/21 14:03:22;;;;;;;12.63;8.65;;;;;;;;;;5099214;28;20232;-82
2021/07/21 14:05:49;;;;;;;11.27;8.65;;;;;;;;;;5099278;28;20102;-82
2021/07/21 14:08:15;;;;;;;11.38;8.77;;;;;;;;;;5099143;28;20024;-81
2021/07/21 14:10:41;;;;;;;11.18;8.57;;;;;;;;;;5114847;28;20035;-81
2021/07/21 14:13:07;;;;;;;11.50;9.32;;;;;;;;;;5114928;28;20414;-81
2021/07/21 14:15:37;;;;;;;14.20;8.38;;;;;;;;;;5114521;28;20043;-81
2021/07/21 14:18:04;;;;;;;12.90;8.18;;;;;;;;;;5098987;28;20103;-81
2021/07/21 14:20:30;;;;;;;11.10;8.88;;;;;;;;;;5099268;28;20379;-81
2021/07/21 14:22:56;;;;;;;11.63;9.00;;;;;;;;;;5098870;28;20346;-81
2021/07/21 14:25:22;;;;;;;12.20;8.80;;;;;;;;;;5098901;28;20050;-81
2021/07/21 14:27:48;;;;;;;12.93;8.25;;;;;;;;;;5098875;28;20055;-81
2021/07/21 14:30:15;;;;;;;13.75;8.15;;;;;;;;;;5098791;28;20028;-81
2021/07/21 14:32:41;;;;;;;11.48;8.05;;;;;;;;;;5113946;28;20036;-81